Time;durP1;ratioP1;P1;durP2;ratioP2;P2;SDS_P1;SDS_P2;PMS_P1;PMS_P2;Temp;Humidity;BMP_temperature;BMP_pressure;BME280_temperature;BME280_humidity;BME280_pressure;Samples;Min_cycle;Max_cycle;Signal;HPM_P1;HPM_P2
2022/05/11 00:02:03;;;;;;;20.63;5.85;;;;;;;14.33;55.19;100773.72;5057887;28;20099;-60
2022/05/11 00:04:34;;;;;;;27.60;5.88;;;;;;;14.48;55.83;100768.09;5057938;28;20064;-59
2022/05/11 00:07:04;;;;;;;18.70;5.13;;;;;;;14.72;54.91;100782.41;5058214;28;20065;-59
2022/05/11 00:09:35;;;;;;;20.80;5.80;;;;;;;14.84;54.09;100771.59;5068275;28;20087;-59
2022/05/11 00:12:07;;;;;;;25.85;5.35;;;;;;;14.98;54.07;100758.06;5077716;28;20127;-59
2022/05/11 00:14:38;;;;;;;22.20;6.28;;;;;;;15.20;53.79;100762.75;5075886;28;20068;-59
2022/05/11 00:17:10;;;;;;;26.77;6.32;;;;;;;15.37;54.25;100749.13;5073684;28;20091;-60
2022/05/11 00:19:41;;;;;;;18.73;4.97;;;;;;;15.62;52.48;100755.38;5077396;28;20066;-59
2022/05/11 00:22:12;;;;;;;23.23;5.60;;;;;;;15.72;52.82;100758.66;5074322;28;20311;-58
2022/05/11 00:24:43;;;;;;;24.20;6.73;;;;;;;15.83;52.03;100759.22;5071400;28;20298;-58
2022/05/11 00:27:13;;;;;;;24.67;6.20;;;;;;;15.90;51.47;100760.75;5072976;28;20287;-57
2022/05/11 00:29:44;;;;;;;18.97;5.57;;;;;;;16.03;51.42;100755.09;5073070;28;20317;-58
2022/05/11 00:32:16;;;;;;;17.47;5.00;;;;;;;16.09;50.17;100754.91;5073525;28;20283;-58
2022/05/11 00:34:47;;;;;;;20.63;5.37;;;;;;;16.18;51.04;100749.34;5072962;28;20649;-57
2022/05/11 00:37:17;;;;;;;26.40;6.20;;;;;;;16.35;51.11;100746.19;5072523;28;20290;-57
2022/05/11 00:39:49;;;;;;;17.93;5.37;;;;;;;16.60;51.35;100755.00;5072723;28;20365;-57
2022/05/11 00:42:19;;;;;;;25.27;6.30;;;;;;;16.85;50.61;100753.31;5072606;28;20334;-58
2022/05/11 00:45:09;;;;;;;16.90;5.03;;;;;;;17.01;49.76;100757.16;5072559;28;21027;-57
2022/05/11 00:47:45;;;;;;;19.60;5.77;;;;;;;17.07;49.55;100759.56;5072328;28;20300;-57
2022/05/11 00:50:18;;;;;;;22.47;6.37;;;;;;;17.17;49.29;100758.34;5072787;28;20314;-57
2022/05/11 00:52:52;;;;;;;19.80;6.13;;;;;;;17.38;48.71;100750.56;5072799;28;20286;-58
2022/05/11 00:55:26;;;;;;;29.80;6.67;;;;;;;17.43;48.09;100738.91;5071812;28;20315;-58
2022/05/11 00:58:03;;;;;;;23.87;5.67;;;;;;;17.49;47.84;100732.50;5073186;28;20354;-58
2022/05/11 01:00:34;;;;;;;17.30;6.13;;;;;;;17.66;46.62;100751.25;5072551;28;20450;-59
2022/05/11 01:03:13;;;;;;;18.77;5.40;;;;;;;17.72;47.21;100749.28;5072677;28;20283;-58
2022/05/11 01:05:45;;;;;;;20.20;5.80;;;;;;;17.82;46.84;100741.00;5072552;28;20822;-58
2022/05/11 01:08:18;;;;;;;25.70;6.73;;;;;;;18.01;46.74;100746.41;5072739;28;20598;-57
2022/05/11 01:10:50;;;;;;;23.40;6.17;;;;;;;18.10;45.88;100743.41;5073142;28;21052;-58
2022/05/11 01:13:22;;;;;;;18.43;6.17;;;;;;;18.16;45.80;100728.22;5072504;28;20318;-59
2022/05/11 01:15:54;;;;;;;19.30;5.00;;;;;;;18.26;44.87;100740.13;5072631;28;20286;-58
2022/05/11 01:18:27;;;;;;;23.03;5.90;;;;;;;18.32;45.57;100724.88;5073096;28;20297;-58
2022/05/11 01:20:58;;;;;;;21.00;5.70;;;;;;;18.42;44.47;100722.72;5072651;28;20378;-58
2022/05/11 01:23:37;;;;;;;16.70;4.97;;;;;;;18.52;44.14;100726.69;5072140;28;20354;-57
2022/05/11 01:26:09;;;;;;;19.45;5.00;;;;;;;18.59;44.07;100723.78;5072251;28;20884;-59
2022/05/11 01:28:43;;;;;;;19.80;5.50;;;;;;;18.65;44.42;100720.88;5072619;28;20238;-59
2022/05/11 01:31:15;;;;;;;17.80;5.03;;;;;;;18.65;44.08;100703.22;5072862;28;20315;-60
2022/05/11 01:33:49;;;;;;;27.27;6.87;;;;;;;18.76;45.05;100718.66;5072769;28;20279;-59
2022/05/11 01:36:26;;;;;;;18.63;4.97;;;;;;;18.90;44.16;100710.97;5072574;28;20644;-59
2022/05/11 01:38:58;;;;;;;22.57;5.47;;;;;;;19.01;43.29;100701.72;5072862;28;20379;-59
2022/05/11 01:41:33;;;;;;;15.40;5.17;;;;;;;18.85;43.09;100662.66;5072499;28;20357;-60
2022/05/11 01:44:06;;;;;;;18.63;5.20;;;;;;;19.02;44.06;100682.22;5072491;28;20295;-59
2022/05/11 01:46:40;;;;;;;13.47;4.97;;;;;;;19.12;43.40;100704.72;5072377;28;20602;-58
2022/05/11 01:49:11;;;;;;;17.17;5.00;;;;;;;19.19;43.30;100700.88;5072594;28;20290;-59
2022/05/11 01:51:42;;;;;;;23.23;5.80;;;;;;;19.22;43.60;100695.47;5072811;28;20307;-58
2022/05/11 01:54:13;;;;;;;12.73;4.40;;;;;;;19.34;43.32;100700.16;5072083;28;20641;-58
2022/05/11 01:56:45;;;;;;;16.47;4.67;;;;;;;19.42;43.55;100713.09;5072466;28;20299;-60
2022/05/11 01:59:16;;;;;;;16.83;4.77;;;;;;;19.54;41.91;100703.69;5072532;28;20318;-59
2022/05/11 02:01:47;;;;;;;15.30;5.07;;;;;;;19.69;41.90;100710.94;5072788;28;20311;-58
2022/05/11 02:09:53;;;;;;;17.57;5.13;;;;;;;19.92;41.85;100701.94;5072267;28;20538;-58
2022/05/11 02:12:25;;;;;;;14.87;4.90;;;;;;;20.06;41.57;100697.72;5072719;28;20314;-57
2022/05/11 02:14:56;;;;;;;14.10;4.80;;;;;;;20.15;41.62;100697.28;5072675;28;20309;-58
2022/05/11 02:17:26;;;;;;;15.00;4.60;;;;;;;20.34;41.29;100702.53;5072424;28;20319;-58
2022/05/11 02:19:57;;;;;;;15.90;5.07;;;;;;;20.29;40.80;100699.25;5071924;28;20286;-58
2022/05/11 02:22:28;;;;;;;15.23;4.87;;;;;;;20.24;40.65;100694.16;5072271;28;20313;-59
2022/05/11 02:24:58;;;;;;;17.83;4.53;;;;;;;20.42;40.20;100700.38;5071700;28;20605;-59
2022/05/11 02:27:33;;;;;;;16.60;4.17;;;;;;;19.92;40.13;100617.06;5072319;28;20295;-58
2022/05/11 02:30:04;;;;;;;18.83;5.40;;;;;;;20.50;41.10;100687.56;5072339;28;20350;-58
2022/05/11 02:32:34;;;;;;;12.57;4.87;;;;;;;20.65;40.04;100686.81;5072061;28;20377;-58
2022/05/11 02:35:16;;;;;;;22.47;5.23;;;;;;;20.72;39.43;100691.78;5069827;28;20302;-58
2022/05/11 02:37:48;;;;;;;15.80;4.83;;;;;;;20.78;39.42;100683.50;5071675;28;20294;-59
2022/05/11 02:40:21;;;;;;;15.57;4.70;;;;;;;20.84;39.56;100668.13;5072082;28;20283;-59
2022/05/11 02:42:53;;;;;;;12.77;4.23;;;;;;;21.02;39.20;100674.25;5075005;28;20339;-58
2022/05/11 02:45:26;;;;;;;17.23;4.90;;;;;;;21.16;40.07;100667.34;5075817;28;20318;-58
2022/05/11 02:47:58;;;;;;;21.37;4.70;;;;;;;21.32;37.78;100665.56;5075634;28;20290;-58
2022/05/11 02:50:31;;;;;;;16.77;4.60;;;;;;;21.40;38.44;100671.34;5075712;28;20346;-59
2022/05/11 02:53:03;;;;;;;10.53;3.90;;;;;;;21.40;38.79;100658.06;5075419;28;20393;-58
2022/05/11 02:55:33;;;;;;;14.97;4.80;;;;;;;21.60;38.41;100669.41;5075360;28;20291;-58
2022/05/11 02:58:06;;;;;;;14.37;5.00;;;;;;;21.59;38.03;100657.03;5075117;28;20349;-58
2022/05/11 03:00:38;;;;;;;15.57;4.43;;;;;;;21.71;38.19;100666.97;5075567;28;20315;-59
2022/05/11 03:03:09;;;;;;;12.03;4.97;;;;;;;21.75;38.13;100664.06;5074469;28;20336;-58
2022/05/11 03:05:40;;;;;;;13.77;4.30;;;;;;;21.83;38.29;100660.97;5074975;28;20289;-59
2022/05/11 03:08:11;;;;;;;19.40;4.77;;;;;;;21.92;38.47;100670.22;5075230;28;20355;-58
2022/05/11 03:10:44;;;;;;;14.50;4.57;;;;;;;21.94;38.54;100669.19;5075237;28;20329;-58
2022/05/11 03:13:17;;;;;;;16.03;4.70;;;;;;;22.00;38.97;100669.78;5075302;28;20289;-59
2022/05/11 03:15:47;;;;;;;21.27;4.63;;;;;;;22.04;37.91;100663.31;5074888;28;20370;-57
2022/05/11 03:18:18;;;;;;;15.57;4.57;;;;;;;22.09;38.57;100666.56;5074323;28;20613;-58
2022/05/11 03:20:49;;;;;;;15.07;4.63;;;;;;;22.17;38.94;100653.69;5075124;28;20849;-57
2022/05/11 03:23:19;;;;;;;15.23;4.47;;;;;;;22.20;38.23;100652.69;5073859;28;20365;-57
2022/05/11 03:25:50;;;;;;;23.03;6.43;;;;;;;22.19;38.63;100657.13;5074939;28;20283;-58
2022/05/11 03:28:23;;;;;;;21.30;5.87;;;;;;;22.18;39.05;100655.41;5074162;28;20318;-56
2022/05/11 03:30:53;;;;;;;18.10;4.70;;;;;;;22.12;38.61;100661.09;5074847;28;20283;-56
2022/05/11 03:36:11;;;;;;;16.97;4.87;;;;;;;22.14;38.71;100640.56;5074795;28;20291;-57
2022/05/11 03:38:42;;;;;;;16.40;4.80;;;;;;;22.18;37.49;100642.94;5074314;28;20314;-57
2022/05/11 03:41:13;;;;;;;20.07;4.77;;;;;;;22.18;38.58;100644.75;5074034;28;20875;-57
2022/05/11 03:43:45;;;;;;;17.97;5.40;;;;;;;22.25;38.36;100640.81;5074110;28;20313;-58
2022/05/11 03:46:17;;;;;;;18.57;4.60;;;;;;;22.25;38.76;100635.50;5074335;28;20310;-58
2022/05/11 03:48:47;;;;;;;13.63;4.43;;;;;;;22.36;38.92;100642.84;5074410;28;20481;-56
2022/05/11 03:51:18;;;;;;;16.00;4.30;;;;;;;22.39;37.03;100627.56;5074133;28;20283;-56
2022/05/11 03:53:48;;;;;;;16.23;4.20;;;;;;;22.48;36.53;100633.28;5055236;28;20460;-56
2022/05/11 03:56:19;;;;;;;17.07;4.87;;;;;;;22.51;36.67;100636.59;5054119;28;20387;-57
2022/05/11 03:58:51;;;;;;;15.47;4.60;;;;;;;22.46;36.88;100629.84;5053854;28;20529;-57
2022/05/11 04:01:22;;;;;;;16.80;4.23;;;;;;;22.60;37.80;100619.22;5053672;28;20287;-57
2022/05/11 04:03:53;;;;;;;26.57;4.60;;;;;;;22.68;37.01;100616.09;5052775;28;20319;-58
2022/05/11 04:06:23;;;;;;;14.43;4.67;;;;;;;22.71;37.11;100616.75;5053082;28;20295;-58
2022/05/11 04:08:54;;;;;;;29.23;5.33;;;;;;;22.66;35.99;100618.81;5053169;28;20374;-60
2022/05/11 04:11:24;;;;;;;16.10;4.90;;;;;;;22.64;37.48;100620.75;5053422;28;20345;-59
2022/05/11 04:13:58;;;;;;;24.23;6.37;;;;;;;22.71;37.65;100615.88;5052962;28;20291;-58
2022/05/11 04:16:29;;;;;;;22.93;5.07;;;;;;;22.81;36.20;100617.91;5054155;28;20375;-59
2022/05/11 04:18:59;;;;;;;15.37;4.73;;;;;;;22.91;36.93;100622.66;5053807;28;20291;-59
2022/05/11 04:21:30;;;;;;;16.13;5.20;;;;;;;22.98;35.58;100619.53;5053531;28;20284;-58
2022/05/11 04:24:01;;;;;;;15.00;5.03;;;;;;;22.93;35.38;100615.41;5053540;28;20067;-57
2022/05/11 04:26:32;;;;;;;24.20;5.70;;;;;;;22.99;36.38;100612.41;5053752;28;20345;-59
2022/05/11 04:29:04;;;;;;;15.40;5.80;;;;;;;23.05;35.68;100614.69;5053844;28;20057;-57
2022/05/11 04:31:35;;;;;;;19.00;5.97;;;;;;;22.98;35.69;100618.69;5053453;28;20343;-58
2022/05/11 04:34:06;;;;;;;18.67;5.70;;;;;;;22.96;35.38;100620.56;5053213;28;20295;-57
2022/05/11 04:36:37;;;;;;;20.93;5.83;;;;;;;23.02;36.25;100604.22;5053679;28;20350;-57
2022/05/11 04:39:08;;;;;;;31.63;6.57;;;;;;;23.06;36.15;100605.72;5053265;28;20080;-56
2022/05/11 04:41:39;;;;;;;23.50;6.30;;;;;;;23.15;35.47;100604.31;5053403;28;20094;-58
2022/05/11 04:44:11;;;;;;;24.13;6.67;;;;;;;23.10;35.12;100601.94;5053160;28;20379;-57
2022/05/11 04:46:42;;;;;;;18.17;7.00;;;;;;;23.08;33.93;100598.50;5053383;28;20140;-57
2022/05/11 04:49:19;;;;;;;22.50;7.30;;;;;;;23.07;34.84;100602.13;5053276;28;20291;-57
2022/05/11 04:51:51;;;;;;;21.10;7.63;;;;;;;22.78;33.78;100562.13;5053570;28;20102;-57
2022/05/11 04:54:22;;;;;;;20.83;7.57;;;;;;;23.03;33.70;100601.44;5053000;28;20055;-57
2022/05/11 04:56:53;;;;;;;22.97;7.80;;;;;;;23.03;33.96;100601.44;5053184;28;20294;-57
2022/05/11 04:59:25;;;;;;;19.77;6.90;;;;;;;23.07;32.32;100602.13;5053164;28;20349;-58
2022/05/11 05:01:58;;;;;;;18.07;6.53;;;;;;;23.08;32.17;100598.50;5053040;28;20144;-58
2022/05/11 05:04:29;;;;;;;13.10;6.67;;;;;;;23.07;32.07;100596.78;5052160;28;20049;-58
2022/05/11 05:06:59;;;;;;;20.30;6.40;;;;;;;23.12;32.44;100605.34;5052861;28;20618;-58
2022/05/11 05:09:30;;;;;;;18.73;6.80;;;;;;;23.13;32.87;100612.38;5052750;28;20068;-59
2022/05/11 05:12:01;;;;;;;19.67;7.20;;;;;;;23.20;31.46;100603.06;5051787;28;20041;-59
2022/05/11 05:14:34;;;;;;;17.40;5.67;;;;;;;23.25;30.83;100600.94;5053033;28;20040;-58
2022/05/11 05:17:06;;;;;;;17.63;7.13;;;;;;;23.20;31.17;100587.06;5052897;28;20120;-57
2022/05/11 05:19:38;;;;;;;22.03;7.17;;;;;;;23.29;30.92;100600.75;5052731;28;20174;-58
2022/05/11 05:22:09;;;;;;;13.80;6.50;;;;;;;23.33;31.31;100604.94;5052309;28;20037;-59
2022/05/11 05:24:41;;;;;;;23.50;7.23;;;;;;;23.24;21.25;100614.38;5052146;28;20311;-59
2022/05/11 05:27:13;;;;;;;19.47;4.70;;;;;;;22.74;29.25;100613.91;5051590;28;20067;-58
2022/05/11 05:32:48;;;;;;;23.37;4.00;;;;;;;23.12;19.13;100609.84;5020766;28;20418;-58
2022/05/11 05:35:20;;;;;;;30.17;4.47;;;;;;;23.24;16.43;100615.25;5020618;28;20434;-57
2022/05/11 05:37:51;;;;;;;24.27;3.63;;;;;;;23.12;15.60;100624.00;5036726;28;20291;-58
2022/05/11 05:40:22;;;;;;;9.70;2.90;;;;;;;23.10;13.79;100633.91;5052580;28;20049;-58
2022/05/11 05:42:53;;;;;;;18.30;3.40;;;;;;;23.13;15.63;100623.03;5052565;28;20493;-57
2022/05/11 05:45:25;;;;;;;5.00;2.50;;;;;;;23.14;13.91;100624.78;5052173;28;20573;-58
2022/05/11 05:47:56;;;;;;;11.83;2.60;;;;;;;23.13;14.51;100627.53;5052575;28;20359;-57
2022/05/11 05:50:27;;;;;;;8.77;2.23;;;;;;;23.05;14.43;100628.00;5053129;28;20287;-57
2022/05/11 05:52:58;;;;;;;44.80;4.57;;;;;;;23.09;16.58;100626.88;5052829;28;20061;-57
2022/05/11 05:55:29;;;;;;;11.97;2.40;;;;;;;23.10;14.82;100628.56;5052750;28;20059;-57
2022/05/11 05:58:00;;;;;;;36.37;3.80;;;;;;;23.10;16.37;100628.56;5052605;28;20340;-58
2022/05/11 06:00:32;;;;;;;34.77;3.60;;;;;;;23.14;16.10;100631.88;5052572;28;20542;-58
2022/05/11 06:03:03;;;;;;;9.30;2.27;;;;;;;23.07;14.55;100628.78;5052722;28;20084;-58
2022/05/11 06:05:34;;;;;;;48.10;5.10;;;;;;;22.89;15.51;100629.88;5052403;28;20050;-57
2022/05/11 06:08:07;;;;;;;12.80;2.60;;;;;;;22.78;17.15;100634.06;5052342;28;20060;-57
2022/05/11 06:10:39;;;;;;;56.13;5.30;;;;;;;22.59;15.91;100638.81;5052479;28;20049;-58
2022/05/11 06:13:10;;;;;;;8.10;2.63;;;;;;;22.60;17.16;100648.50;5052139;28;20477;-57
2022/05/11 06:15:43;;;;;;;17.77;4.13;;;;;;;22.59;17.42;100644.16;5053154;28;20288;-57
2022/05/11 06:18:14;;;;;;;10.37;2.87;;;;;;;22.71;17.60;100646.03;5055888;28;20602;-57
2022/05/11 06:20:45;;;;;;;14.87;2.70;;;;;;;22.71;17.37;100659.34;5055759;28;20333;-57
2022/05/11 06:23:16;;;;;;;64.17;5.67;;;;;;;22.71;17.95;100659.34;5055699;28;20922;-58
2022/05/11 06:25:49;;;;;;;21.60;2.97;;;;;;;22.76;17.32;100667.94;5056004;28;20283;-57
2022/05/11 06:28:20;;;;;;;15.57;3.73;;;;;;;22.77;16.36;100659.00;5055664;28;20353;-58
2022/05/11 06:31:14;;;;;;;20.20;4.27;;;;;;;22.58;15.97;100627.28;5055851;28;20501;-58
2022/05/11 06:33:49;;;;;;;41.67;4.60;;;;;;;22.70;15.10;100662.97;5055489;28;20342;-57
2022/05/11 06:36:23;;;;;;;18.67;3.87;;;;;;;22.70;16.27;100657.66;5055723;28;20291;-58
2022/05/11 06:38:55;;;;;;;8.07;3.20;;;;;;;22.54;16.26;100635.53;5055460;28;20351;-57
2022/05/11 06:41:28;;;;;;;44.90;4.70;;;;;;;22.69;16.22;100671.06;5055613;28;20375;-57
2022/05/11 06:43:58;;;;;;;14.43;3.70;;;;;;;22.53;17.53;100665.81;5055932;28;20318;-57
2022/05/11 06:46:32;;;;;;;11.80;4.03;;;;;;;22.35;16.92;100663.28;5055533;28;20351;-57
2022/05/11 06:49:03;;;;;;;13.97;3.20;;;;;;;22.36;18.26;100659.66;5055584;28;20365;-59
2022/05/11 06:51:34;;;;;;;16.30;3.80;;;;;;;22.42;17.80;100662.94;5055439;28;20680;-56
2022/05/11 06:59:44;;;;;;;29.83;4.27;;;;;;;22.24;17.23;100676.38;5055131;28;20359;-58
2022/05/11 07:02:16;;;;;;;13.57;3.00;;;;;;;22.26;17.65;100678.94;5055252;28;20280;-57
2022/05/11 07:04:48;;;;;;;7.20;2.60;;;;;;;22.27;17.97;100676.19;5055159;28;20307;-56
2022/05/11 07:07:19;;;;;;;12.10;3.13;;;;;;;22.22;17.02;100672.94;5054805;28;20750;-56
2022/05/11 07:09:50;;;;;;;5.00;2.70;;;;;;;22.22;16.74;100672.94;5054868;28;20318;-56
2022/05/11 07:12:31;;;;;;;14.60;2.87;;;;;;;22.28;17.57;100677.91;5055271;28;20283;-58
2022/05/11 07:15:21;;;;;;;10.50;3.08;;;;;;;22.29;17.38;100663.66;5055002;28;20302;-57
2022/05/11 07:17:57;;;;;;;14.60;3.10;;;;;;;22.30;16.21;100659.19;5054855;28;20057;-57
2022/05/11 07:20:33;;;;;;;11.03;2.37;;;;;;;22.34;17.03;100674.00;5054688;28;20271;-57
2022/05/11 07:23:06;;;;;;;4.13;2.10;;;;;;;22.35;15.75;100667.75;5054444;28;20798;-59
2022/05/11 07:25:37;;;;;;;9.43;2.63;;;;;;;22.28;16.27;100672.59;5054782;28;20740;-58
2022/05/11 07:28:08;;;;;;;14.53;2.90;;;;;;;22.25;16.37;100672.75;5054296;28;20586;-58
2022/05/11 07:30:39;;;;;;;7.47;1.83;;;;;;;22.24;16.57;100675.50;5054652;28;20610;-57
2022/05/11 07:33:11;;;;;;;7.83;2.10;;;;;;;22.13;16.44;100676.09;5054573;28;20578;-58
2022/05/11 07:35:43;;;;;;;7.83;2.67;;;;;;;22.08;17.60;100664.88;5054586;28;20295;-57
2022/05/11 07:38:16;;;;;;;10.67;2.27;;;;;;;21.95;16.99;100660.25;5054488;28;20268;-57
2022/05/11 07:40:47;;;;;;;12.23;2.67;;;;;;;21.73;17.15;100638.50;5054712;28;20666;-57
2022/05/11 07:43:18;;;;;;;18.67;4.07;;;;;;;21.80;18.09;100666.47;5054479;28;20283;-57
2022/05/11 07:45:49;;;;;;;12.60;2.60;;;;;;;21.67;18.46;100678.75;5054341;28;20724;-57
2022/05/11 07:48:22;;;;;;;5.17;2.40;;;;;;;21.46;16.25;100678.97;5054123;28;20337;-57
2022/05/11 07:50:53;;;;;;;5.40;2.60;;;;;;;21.17;16.79;100671.69;5054301;28;20489;-57
2022/05/11 07:53:23;;;;;;;7.07;2.30;;;;;;;20.94;16.83;100675.59;5053970;28;20288;-57
2022/05/11 08:01:25;;;;;;;18.37;3.03;;;;;;;19.94;16.76;100591.28;5054012;28;20279;-57
2022/05/11 08:03:57;;;;;;;8.17;2.50;;;;;;;20.37;17.32;100675.84;5053713;28;20280;-57
2022/05/11 08:06:28;;;;;;;8.27;2.30;;;;;;;20.24;18.02;100664.97;5054338;28;20828;-57
2022/05/11 08:08:58;;;;;;;8.97;2.40;;;;;;;20.20;17.72;100677.53;5054005;28;20283;-57
2022/05/11 08:11:30;;;;;;;7.43;2.40;;;;;;;20.15;18.07;100668.97;5053936;28;20601;-57
2022/05/11 08:14:00;;;;;;;22.63;2.73;;;;;;;20.11;18.57;100670.03;5053983;28;20333;-58
2022/05/11 08:16:31;;;;;;;11.13;2.40;;;;;;;20.09;18.16;100677.22;5053765;28;20290;-57
2022/05/11 08:19:03;;;;;;;21.90;3.17;;;;;;;20.06;18.20;100668.56;5054042;28;20329;-57
2022/05/11 08:21:34;;;;;;;10.53;2.87;;;;;;;20.01;18.67;100680.25;5053637;28;20363;-58
2022/05/11 08:24:05;;;;;;;7.13;2.07;;;;;;;19.95;17.40;100674.41;5053673;28;20295;-56
2022/05/11 08:26:36;;;;;;;5.00;1.97;;;;;;;19.92;17.93;100680.72;5053641;28;20305;-55
2022/05/11 08:29:06;;;;;;;4.83;2.63;;;;;;;19.94;18.51;100678.81;5053240;28;20283;-57
2022/05/11 08:34:26;;;;;;;14.07;3.23;;;;;;;19.82;18.25;100680.28;5052967;28;20284;-57
2022/05/11 08:36:57;;;;;;;11.07;3.50;;;;;;;19.74;18.67;100682.44;5053340;28;20279;-57
2022/05/11 08:39:28;;;;;;;12.20;3.23;;;;;;;19.70;19.88;100680.88;5052489;28;20282;-57
2022/05/11 08:42:00;;;;;;;13.87;3.33;;;;;;;19.60;21.13;100680.41;5053144;28;20358;-57
2022/05/11 08:44:34;;;;;;;15.60;3.27;;;;;;;19.42;22.61;100676.00;5053258;28;20291;-56
2022/05/11 08:47:14;;;;;;;13.07;2.77;;;;;;;19.15;22.74;100683.41;5052885;28;20302;-56
2022/05/11 08:49:52;;;;;;;11.93;2.87;;;;;;;18.82;26.23;100686.66;5053341;28;20311;-58
2022/05/11 08:52:37;;;;;;;10.43;2.97;;;;;;;18.39;27.42;100677.84;5053366;28;20283;-57
2022/05/11 08:55:13;;;;;;;22.53;3.53;;;;;;;18.04;27.56;100677.53;5053028;28;20608;-58
2022/05/11 08:57:44;;;;;;;36.77;4.87;;;;;;;17.69;29.24;100677.13;5053224;28;20310;-57
2022/05/11 09:00:17;;;;;;;27.10;4.93;;;;;;;17.20;30.81;100668.44;5053245;28;20279;-58
2022/05/11 09:02:52;;;;;;;8.20;3.73;;;;;;;16.87;29.89;100686.34;5053054;28;20271;-56
2022/05/11 09:05:31;;;;;;;13.70;3.20;;;;;;;16.49;29.59;100685.91;5053300;28;20311;-57
2022/05/11 09:08:06;;;;;;;14.77;3.65;;;;;;;16.20;30.27;100700.06;5053068;28;20326;-57
2022/05/11 09:10:38;;;;;;;6.10;3.03;;;;;;;15.68;30.72;100686.72;5052832;28;20049;-57
2022/05/11 09:13:12;;;;;;;4.83;2.80;;;;;;;15.33;31.27;100690.44;5052801;28;20325;-57
2022/05/11 09:15:57;;;;;;;5.00;2.60;;;;;;;15.10;31.23;100694.59;5052643;28;20314;-57
2022/05/11 09:18:42;;;;;;;6.47;3.07;;;;;;;15.01;31.09;100694.84;5052957;28;20322;-56
2022/05/11 09:21:32;;;;;;;7.23;2.50;;;;;;;14.95;30.96;100688.88;5052674;28;20280;-55
2022/05/11 09:24:10;;;;;;;3.53;2.30;;;;;;;14.94;30.75;100695.91;5052756;28;20292;-57
2022/05/11 09:26:44;;;;;;;3.07;2.40;;;;;;;14.91;30.98;100703.03;5052568;28;20768;-55
2022/05/11 09:29:22;;;;;;;5.07;2.67;;;;;;;14.71;31.99;100695.69;5052556;28;20276;-55
2022/05/11 09:31:55;;;;;;;7.35;3.20;;;;;;;14.31;33.40;100686.16;5052221;28;20315;-58
2022/05/11 09:34:33;;;;;;;5.28;3.10;;;;;;;14.15;32.99;100701.41;5052273;28;20570;-56
2022/05/11 09:37:21;;;;;;;5.95;3.42;;;;;;;13.60;34.11;100687.78;5052477;28;20098;-56
2022/05/11 09:39:56;;;;;;;9.45;4.25;;;;;;;13.15;35.37;100708.81;5051791;28;20044;-58
2022/05/11 09:42:32;;;;;;;12.57;4.05;;;;;;;12.86;36.21;100715.50;5051156;28;20076;-56
2022/05/11 09:45:04;;;;;;;10.45;3.80;;;;;;;12.36;36.58;100677.94;5051711;28;20067;-59
2022/05/11 09:48:02;;;;;;;13.00;3.45;;;;;;;12.35;36.74;100712.88;5050466;28;20112;-54
2022/05/11 09:50:31;;;;;;;9.60;3.20;;;;;;;12.15;37.30;100714.97;5053947;28;20147;-58
2022/05/11 09:53:19;;;;;;;5.03;2.70;;;;;;;11.94;37.49;100713.56;5056489;28;20048;-57
2022/05/11 09:55:50;;;;;;;7.05;2.88;;;;;;;11.73;37.84;100712.94;5056158;28;20076;-58
2022/05/11 09:58:33;;;;;;;5.80;2.80;;;;;;;11.60;38.27;100716.59;5056049;28;20091;-57
2022/05/11 10:01:13;;;;;;;10.05;3.38;;;;;;;11.45;38.31;100717.66;5055751;28;20049;-56
2022/05/11 10:03:49;;;;;;;14.63;3.70;;;;;;;11.33;38.67;100707.34;5055338;28;20045;-55
2022/05/11 10:06:49;;;;;;;9.43;2.70;;;;;;;11.15;39.59;100719.75;5056265;28;20123;-55
2022/05/11 10:09:28;;;;;;;7.18;2.92;;;;;;;10.98;39.67;100722.59;5056267;28;20049;-56
2022/05/11 10:12:09;;;;;;;9.02;3.40;;;;;;;10.84;39.86;100728.84;5056078;28;20051;-56
2022/05/11 10:23:37;;;;;;;11.23;4.20;;;;;;;10.35;40.35;100730.13;5056153;28;20060;-54
2022/05/11 10:26:15;;;;;;;7.35;4.60;;;;;;;10.26;40.12;100741.50;5055826;28;20087;-54
2022/05/11 10:28:56;;;;;;;4.55;3.22;;;;;;;10.20;39.78;100744.13;5055880;28;20080;-56
2022/05/11 10:31:34;;;;;;;4.35;3.25;;;;;;;10.13;39.95;100739.81;5056134;28;20118;-57
2022/05/11 10:34:17;;;;;;;4.80;3.00;;;;;;;10.04;40.02;100743.38;5055671;28;20088;-55
2022/05/11 10:36:54;;;;;;;4.45;3.03;;;;;;;9.94;40.42;100760.84;5055721;28;20091;-53
2022/05/11 10:39:39;;;;;;;21.27;3.60;;;;;;;9.88;40.58;100766.13;5055752;28;20045;-53
2022/05/11 10:42:15;;;;;;;15.23;4.03;;;;;;;9.68;40.94;100720.97;5055678;28;20091;-51
2022/05/11 10:45:01;;;;;;;9.20;3.35;;;;;;;9.84;40.22;100764.38;5055458;28;20049;-56
2022/05/11 10:47:49;;;;;;;6.53;3.05;;;;;;;9.74;40.30;100754.88;5055306;28;20128;-54
2022/05/11 10:50:25;;;;;;;12.02;3.20;;;;;;;9.66;40.18;100759.25;5055797;28;20060;-52
2022/05/11 10:53:32;;;;;;;10.88;3.17;;;;;;;9.62;40.96;100752.31;5055604;28;20084;-52
2022/05/11 10:56:25;;;;;;;6.03;3.13;;;;;;;9.54;41.28;100754.09;5053681;28;20049;-54
2022/05/11 10:59:33;;;;;;;7.43;3.00;;;;;;;9.44;41.31;100743.69;5055704;28;20120;-55
2022/05/11 11:02:31;;;;;;;5.22;3.30;;;;;;;9.35;41.51;100754.16;5021096;28;20108;-57
2022/05/11 11:05:10;;;;;;;14.52;6.50;;;;;;;8.81;41.79;100683.94;5055286;28;20087;-55
2022/05/11 11:07:47;;;;;;;13.02;6.20;;;;;;;9.13;41.92;100749.88;5055139;28;20124;-56
2022/05/11 11:10:28;;;;;;;10.68;5.32;;;;;;;9.05;42.45;100749.91;5054977;28;20366;-54
2022/05/11 11:13:23;;;;;;;10.68;5.18;;;;;;;8.93;42.97;100750.78;5055574;28;20060;-54
2022/05/11 11:15:57;;;;;;;7.07;4.28;;;;;;;8.85;43.47;100758.63;5055231;28;20592;-55
2022/05/11 11:18:34;;;;;;;6.55;3.78;;;;;;;8.82;43.53;100760.38;5055373;28;20045;-56
2022/05/11 11:21:08;;;;;;;8.60;3.63;;;;;;;8.80;43.66;100749.09;5055171;28;20068;-52
2022/05/11 11:23:41;;;;;;;7.35;4.50;;;;;;;8.80;43.43;100759.50;5054482;28;20052;-53
2022/05/11 11:26:13;;;;;;;9.75;4.90;;;;;;;8.87;42.18;100766.44;5054316;28;20045;-56
2022/05/11 11:29:18;;;;;;;7.95;5.18;;;;;;;8.93;42.63;100771.63;5054705;28;20053;-56
2022/05/11 11:32:09;;;;;;;8.88;4.40;;;;;;;8.93;42.74;100771.63;4992871;28;20061;-55
2022/05/11 11:34:43;;;;;;;9.30;5.13;;;;;;;8.80;42.70;100759.50;5053228;28;20041;-53
2022/05/11 11:37:47;;;;;;;9.05;5.20;;;;;;;8.82;43.04;100778.63;5054458;28;20479;-53
2022/05/11 11:40:30;;;;;;;10.68;5.63;;;;;;;8.79;45.11;100768.22;5054727;28;20061;-54
2022/05/11 11:43:38;;;;;;;7.40;4.47;;;;;;;8.77;45.35;100777.75;5053852;28;20090;-56
2022/05/11 11:46:04;;;;;;;12.45;5.13;;;;;;;8.63;46.32;100773.41;5054116;28;20076;-53
2022/05/11 11:48:38;;;;;;;11.18;4.45;;;;;;;8.64;47.27;100775.16;5054395;28;20063;-57
2022/05/11 11:51:32;;;;;;;10.07;5.30;;;;;;;8.55;47.19;100776.88;5054313;28;20104;-52
2022/05/11 11:54:03;;;;;;;7.45;4.38;;;;;;;8.45;47.47;100772.53;5053899;28;20068;-55
2022/05/11 11:56:52;;;;;;;13.85;5.18;;;;;;;8.35;47.79;100776.84;5054132;28;20147;-57
2022/05/11 11:59:50;;;;;;;10.40;4.57;;;;;;;8.26;48.03;100771.63;5054011;28;20339;-56
2022/05/11 12:02:28;;;;;;;12.48;4.00;;;;;;;8.18;48.55;100759.44;5025268;28;20045;-56
2022/05/11 12:05:11;;;;;;;8.80;4.25;;;;;;;8.17;49.28;100762.94;5054127;28;20099;-54
2022/05/11 12:16:24;;;;;;;7.32;4.10;;;;;;;7.75;53.65;100766.31;5053838;28;20116;-57
2022/05/11 12:19:09;;;;;;;6.75;4.30;;;;;;;7.76;53.70;100776.72;5053730;28;20082;-55
2022/05/11 12:21:41;;;;;;;10.82;4.60;;;;;;;7.63;54.49;100774.94;5053560;28;20061;-56
2022/05/11 12:24:27;;;;;;;13.23;3.88;;;;;;;7.52;55.87;100774.03;5054196;28;20056;-55
2022/05/11 12:27:00;;;;;;;15.93;4.20;;;;;;;7.27;57.87;100760.91;5053799;28;20084;-54
2022/05/11 12:32:24;;;;;;;11.57;4.50;;;;;;;6.96;60.29;100774.56;5053439;28;20047;-58
2022/05/11 12:34:55;;;;;;;8.50;3.45;;;;;;;6.80;61.39;100769.28;5053502;28;20112;-56
2022/05/11 12:37:29;;;;;;;7.95;3.70;;;;;;;6.65;62.10;100784.75;5053268;28;20052;-55
2022/05/11 12:40:03;;;;;;;10.38;3.80;;;;;;;6.43;62.95;100750.81;5053482;28;20041;-57